sensor_id;sensor_type;location;lat;lon;timestamp;P1;durP1;ratioP1;P2;durP2;ratioP2
64816;SDS011;69411;45.656;11.740;2024-02-15T00:00:40;42.38;;;25.08;;
64816;SDS011;69411;45.656;11.740;2024-02-15T00:03:08;42.15;;;25.60;;
64816;SDS011;69411;45.656;11.740;2024-02-15T00:05:39;47.25;;;26.25;;
64816;SDS011;69411;45.656;11.740;2024-02-15T00:08:05;46.60;;;27.42;;
64816;SDS011;69411;45.656;11.740;2024-02-15T00:10:31;44.10;;;26.40;;
64816;SDS011;69411;45.656;11.740;2024-02-15T00:12:57;45.55;;;27.17;;
64816;SDS011;69411;45.656;11.740;2024-02-15T00:15:23;45.30;;;26.02;;
64816;SDS011;69411;45.656;11.740;2024-02-15T00:17:49;49.60;;;27.77;;
64816;SDS011;69411;45.656;11.740;2024-02-15T00:20:16;40.28;;;25.52;;
64816;SDS011;69411;45.656;11.740;2024-02-15T00:22:43;47.65;;;27.67;;
64816;SDS011;69411;45.656;11.740;2024-02-15T00:25:09;48.45;;;28.00;;
64816;SDS011;69411;45.656;11.740;2024-02-15T00:27:36;46.15;;;27.40;;
64816;SDS011;69411;45.656;11.740;2024-02-15T00:30:03;45.45;;;26.98;;
64816;SDS011;69411;45.656;11.740;2024-02-15T00:32:35;45.95;;;27.13;;
64816;SDS011;69411;45.656;11.740;2024-02-15T00:35:02;49.20;;;26.38;;
64816;SDS011;69411;45.656;11.740;2024-02-15T00:37:33;49.22;;;28.42;;
64816;SDS011;69411;45.656;11.740;2024-02-15T00:39:59;49.42;;;28.15;;
64816;SDS011;69411;45.656;11.740;2024-02-15T00:42:25;47.20;;;26.65;;
64816;SDS011;69411;45.656;11.740;2024-02-15T00:44:51;48.45;;;27.02;;
64816;SDS011;69411;45.656;11.740;2024-02-15T00:47:17;46.35;;;27.45;;
64816;SDS011;69411;45.656;11.740;2024-02-15T00:49:46;50.53;;;28.48;;
64816;SDS011;69411;45.656;11.740;2024-02-15T00:52:12;55.25;;;28.70;;
64816;SDS011;69411;45.656;11.740;2024-02-15T00:54:38;47.85;;;27.67;;
64816;SDS011;69411;45.656;11.740;2024-02-15T00:57:04;47.80;;;26.50;;
64816;SDS011;69411;45.656;11.740;2024-02-15T00:59:30;50.78;;;27.02;;
64816;SDS011;69411;45.656;11.740;2024-02-15T01:01:56;46.58;;;25.25;;
64816;SDS011;69411;45.656;11.740;2024-02-15T01:04:22;46.05;;;26.08;;
64816;SDS011;69411;45.656;11.740;2024-02-15T01:06:48;40.53;;;25.10;;
64816;SDS011;69411;45.656;11.740;2024-02-15T01:09:14;45.88;;;26.65;;
64816;SDS011;69411;45.656;11.740;2024-02-15T01:11:39;45.65;;;24.40;;
64816;SDS011;69411;45.656;11.740;2024-02-15T01:14:05;43.78;;;24.88;;
64816;SDS011;69411;45.656;11.740;2024-02-15T01:16:35;44.17;;;26.00;;
64816;SDS011;69411;45.656;11.740;2024-02-15T01:19:02;42.05;;;24.27;;
64816;SDS011;69411;45.656;11.740;2024-02-15T01:21:30;49.22;;;25.95;;
64816;SDS011;69411;45.656;11.740;2024-02-15T01:23:58;44.45;;;24.50;;
64816;SDS011;69411;45.656;11.740;2024-02-15T01:26:26;42.15;;;25.23;;
64816;SDS011;69411;45.656;11.740;2024-02-15T01:28:52;44.03;;;25.60;;
64816;SDS011;69411;45.656;11.740;2024-02-15T01:31:18;41.70;;;24.63;;
64816;SDS011;69411;45.656;11.740;2024-02-15T01:33:44;47.25;;;26.35;;
64816;SDS011;69411;45.656;11.740;2024-02-15T01:36:14;45.47;;;24.80;;
64816;SDS011;69411;45.656;11.740;2024-02-15T01:38:41;47.17;;;24.73;;
64816;SDS011;69411;45.656;11.740;2024-02-15T01:41:07;39.47;;;23.48;;
64816;SDS011;69411;45.656;11.740;2024-02-15T01:43:33;48.47;;;26.10;;
64816;SDS011;69411;45.656;11.740;2024-02-15T01:46:01;42.80;;;24.67;;
64816;SDS011;69411;45.656;11.740;2024-02-15T01:48:32;38.40;;;23.63;;
64816;SDS011;69411;45.656;11.740;2024-02-15T01:50:59;41.25;;;24.73;;
64816;SDS011;69411;45.656;11.740;2024-02-15T01:53:25;45.08;;;24.70;;
64816;SDS011;69411;45.656;11.740;2024-02-15T01:55:52;38.17;;;23.73;;
64816;SDS011;69411;45.656;11.740;2024-02-15T01:58:20;39.38;;;23.45;;
64816;SDS011;69411;45.656;11.740;2024-02-15T02:00:47;41.40;;;25.58;;
64816;SDS011;69411;45.656;11.740;2024-02-15T02:03:14;39.90;;;23.77;;
64816;SDS011;69411;45.656;11.740;2024-02-15T02:05:40;41.50;;;23.48;;
64816;SDS011;69411;45.656;11.740;2024-02-15T02:08:07;42.35;;;24.15;;
64816;SDS011;69411;45.656;11.740;2024-02-15T02:10:37;41.13;;;23.30;;
64816;SDS011;69411;45.656;11.740;2024-02-15T02:13:07;35.67;;;21.08;;
64816;SDS011;69411;45.656;11.740;2024-02-15T02:15:33;41.90;;;22.70;;
64816;SDS011;69411;45.656;11.740;2024-02-15T02:18:03;38.70;;;21.02;;
64816;SDS011;69411;45.656;11.740;2024-02-15T02:20:34;38.88;;;20.88;;
64816;SDS011;69411;45.656;11.740;2024-02-15T02:23:07;36.88;;;20.63;;
64816;SDS011;69411;45.656;11.740;2024-02-15T02:25:38;37.33;;;21.15;;
64816;SDS011;69411;45.656;11.740;2024-02-15T02:28:05;33.90;;;18.95;;
64816;SDS011;69411;45.656;11.740;2024-02-15T02:30:32;34.22;;;19.98;;
64816;SDS011;69411;45.656;11.740;2024-02-15T02:32:58;34.60;;;19.85;;
64816;SDS011;69411;45.656;11.740;2024-02-15T02:35:24;34.78;;;20.88;;
64816;SDS011;69411;45.656;11.740;2024-02-15T02:37:51;36.13;;;20.90;;
64816;SDS011;69411;45.656;11.740;2024-02-15T02:40:19;37.33;;;21.10;;
64816;SDS011;69411;45.656;11.740;2024-02-15T02:42:52;33.38;;;20.10;;
64816;SDS011;69411;45.656;11.740;2024-02-15T02:45:19;31.55;;;19.50;;
64816;SDS011;69411;45.656;11.740;2024-02-15T02:47:48;37.00;;;20.98;;
64816;SDS011;69411;45.656;11.740;2024-02-15T02:50:15;37.72;;;20.65;;
64816;SDS011;69411;45.656;11.740;2024-02-15T02:52:41;38.10;;;21.40;;
64816;SDS011;69411;45.656;11.740;2024-02-15T02:55:07;40.65;;;20.90;;
64816;SDS011;69411;45.656;11.740;2024-02-15T02:57:36;37.70;;;19.38;;
64816;SDS011;69411;45.656;11.740;2024-02-15T03:00:04;33.92;;;18.50;;
64816;SDS011;69411;45.656;11.740;2024-02-15T03:02:41;32.30;;;18.20;;
64816;SDS011;69411;45.656;11.740;2024-02-15T03:05:09;31.48;;;17.42;;
64816;SDS011;69411;45.656;11.740;2024-02-15T03:07:36;36.50;;;20.33;;
64816;SDS011;69411;45.656;11.740;2024-02-15T03:10:03;35.10;;;19.63;;
64816;SDS011;69411;45.656;11.740;2024-02-15T03:12:33;35.20;;;19.73;;
64816;SDS011;69411;45.656;11.740;2024-02-15T03:15:12;40.35;;;20.50;;
64816;SDS011;69411;45.656;11.740;2024-02-15T03:17:42;32.28;;;18.92;;
64816;SDS011;69411;45.656;11.740;2024-02-15T03:20:09;36.08;;;19.35;;
64816;SDS011;69411;45.656;11.740;2024-02-15T03:22:50;39.47;;;19.52;;
64816;SDS011;69411;45.656;11.740;2024-02-15T03:25:28;36.10;;;18.88;;
64816;SDS011;69411;45.656;11.740;2024-02-15T03:27:55;37.90;;;19.13;;
64816;SDS011;69411;45.656;11.740;2024-02-15T03:30:23;37.80;;;19.77;;
64816;SDS011;69411;45.656;11.740;2024-02-15T03:32:54;36.13;;;20.58;;
64816;SDS011;69411;45.656;11.740;2024-02-15T03:35:21;34.45;;;18.90;;
64816;SDS011;69411;45.656;11.740;2024-02-15T03:37:48;34.70;;;19.13;;
64816;SDS011;69411;45.656;11.740;2024-02-15T03:40:17;38.70;;;18.10;;
64816;SDS011;69411;45.656;11.740;2024-02-15T03:42:47;32.83;;;19.52;;
64816;SDS011;69411;45.656;11.740;2024-02-15T03:45:15;33.63;;;18.52;;
64816;SDS011;69411;45.656;11.740;2024-02-15T03:47:41;36.80;;;19.60;;
64816;SDS011;69411;45.656;11.740;2024-02-15T03:50:07;33.03;;;18.30;;
64816;SDS011;69411;45.656;11.740;2024-02-15T03:52:37;34.20;;;18.45;;
64816;SDS011;69411;45.656;11.740;2024-02-15T03:55:04;35.50;;;19.30;;
64816;SDS011;69411;45.656;11.740;2024-02-15T03:57:31;41.38;;;20.35;;
64816;SDS011;69411;45.656;11.740;2024-02-15T03:59:58;37.10;;;19.23;;
64816;SDS011;69411;45.656;11.740;2024-02-15T04:02:24;32.75;;;18.58;;
64816;SDS011;69411;45.656;11.740;2024-02-15T04:04:54;34.33;;;19.33;;
64816;SDS011;69411;45.656;11.740;2024-02-15T04:07:21;34.65;;;18.65;;
64816;SDS011;69411;45.656;11.740;2024-02-15T04:09:48;37.35;;;18.30;;
64816;SDS011;69411;45.656;11.740;2024-02-15T04:12:14;30.58;;;16.65;;
64816;SDS011;69411;45.656;11.740;2024-02-15T04:14:40;32.72;;;18.08;;
64816;SDS011;69411;45.656;11.740;2024-02-15T04:17:06;35.67;;;18.77;;
64816;SDS011;69411;45.656;11.740;2024-02-15T04:19:33;29.38;;;17.27;;
64816;SDS011;69411;45.656;11.740;2024-02-15T04:21:59;29.55;;;15.90;;
64816;SDS011;69411;45.656;11.740;2024-02-15T04:24:26;27.70;;;15.90;;
64816;SDS011;69411;45.656;11.740;2024-02-15T04:26:52;29.10;;;16.85;;
64816;SDS011;69411;45.656;11.740;2024-02-15T04:29:19;29.02;;;16.75;;
64816;SDS011;69411;45.656;11.740;2024-02-15T04:31:45;31.98;;;17.10;;
64816;SDS011;69411;45.656;11.740;2024-02-15T04:34:17;32.53;;;17.38;;
64816;SDS011;69411;45.656;11.740;2024-02-15T04:36:45;27.00;;;16.30;;
64816;SDS011;69411;45.656;11.740;2024-02-15T04:39:16;30.23;;;17.70;;
64816;SDS011;69411;45.656;11.740;2024-02-15T04:41:55;31.40;;;17.05;;
64816;SDS011;69411;45.656;11.740;2024-02-15T04:44:21;29.27;;;17.10;;
64816;SDS011;69411;45.656;11.740;2024-02-15T04:46:48;34.83;;;19.05;;
64816;SDS011;69411;45.656;11.740;2024-02-15T04:49:17;33.65;;;18.77;;
64816;SDS011;69411;45.656;11.740;2024-02-15T04:51:44;30.90;;;18.13;;
64816;SDS011;69411;45.656;11.740;2024-02-15T04:54:10;31.05;;;19.17;;
64816;SDS011;69411;45.656;11.740;2024-02-15T04:56:42;32.88;;;17.70;;
64816;SDS011;69411;45.656;11.740;2024-02-15T04:59:11;28.90;;;17.25;;
64816;SDS011;69411;45.656;11.740;2024-02-15T05:01:43;32.05;;;18.00;;
64816;SDS011;69411;45.656;11.740;2024-02-15T05:04:10;36.08;;;18.50;;
64816;SDS011;69411;45.656;11.740;2024-02-15T05:06:36;32.70;;;18.42;;
64816;SDS011;69411;45.656;11.740;2024-02-15T05:09:02;31.55;;;16.50;;
64816;SDS011;69411;45.656;11.740;2024-02-15T05:11:33;34.25;;;18.63;;
64816;SDS011;69411;45.656;11.740;2024-02-15T05:14:02;31.35;;;17.40;;
64816;SDS011;69411;45.656;11.740;2024-02-15T05:16:31;31.70;;;17.52;;
64816;SDS011;69411;45.656;11.740;2024-02-15T05:18:58;31.40;;;17.20;;
64816;SDS011;69411;45.656;11.740;2024-02-15T05:21:24;28.60;;;16.60;;
64816;SDS011;69411;45.656;11.740;2024-02-15T05:23:50;35.78;;;17.77;;
64816;SDS011;69411;45.656;11.740;2024-02-15T05:26:17;33.83;;;18.73;;
64816;SDS011;69411;45.656;11.740;2024-02-15T05:28:49;32.53;;;17.95;;
64816;SDS011;69411;45.656;11.740;2024-02-15T05:31:17;30.77;;;18.80;;
64816;SDS011;69411;45.656;11.740;2024-02-15T05:33:48;30.73;;;17.60;;
64816;SDS011;69411;45.656;11.740;2024-02-15T05:36:16;32.83;;;18.33;;
64816;SDS011;69411;45.656;11.740;2024-02-15T05:38:47;29.65;;;17.70;;
64816;SDS011;69411;45.656;11.740;2024-02-15T05:41:15;35.50;;;18.30;;
64816;SDS011;69411;45.656;11.740;2024-02-15T05:43:41;34.28;;;18.75;;
64816;SDS011;69411;45.656;11.740;2024-02-15T05:46:08;28.88;;;17.05;;
64816;SDS011;69411;45.656;11.740;2024-02-15T05:48:35;32.17;;;17.60;;
64816;SDS011;69411;45.656;11.740;2024-02-15T05:51:03;30.55;;;17.13;;
64816;SDS011;69411;45.656;11.740;2024-02-15T05:53:30;32.42;;;17.15;;
64816;SDS011;69411;45.656;11.740;2024-02-15T05:56:07;31.75;;;16.40;;
64816;SDS011;69411;45.656;11.740;2024-02-15T05:58:37;29.88;;;16.60;;
64816;SDS011;69411;45.656;11.740;2024-02-15T06:01:05;28.98;;;16.08;;
64816;SDS011;69411;45.656;11.740;2024-02-15T06:03:37;29.60;;;16.80;;
64816;SDS011;69411;45.656;11.740;2024-02-15T06:06:04;28.35;;;16.10;;
64816;SDS011;69411;45.656;11.740;2024-02-15T06:08:34;30.45;;;17.00;;
64816;SDS011;69411;45.656;11.740;2024-02-15T06:11:01;28.48;;;14.80;;
64816;SDS011;69411;45.656;11.740;2024-02-15T06:13:29;32.38;;;15.35;;
64816;SDS011;69411;45.656;11.740;2024-02-15T06:15:56;25.73;;;14.98;;
64816;SDS011;69411;45.656;11.740;2024-02-15T06:18:23;27.17;;;15.32;;
64816;SDS011;69411;45.656;11.740;2024-02-15T06:20:52;25.77;;;15.18;;
64816;SDS011;69411;45.656;11.740;2024-02-15T06:23:27;28.10;;;15.52;;
64816;SDS011;69411;45.656;11.740;2024-02-15T06:25:55;31.95;;;16.65;;
64816;SDS011;69411;45.656;11.740;2024-02-15T06:28:23;28.80;;;15.70;;
64816;SDS011;69411;45.656;11.740;2024-02-15T06:31:08;29.90;;;16.33;;
64816;SDS011;69411;45.656;11.740;2024-02-15T06:33:53;27.13;;;15.77;;
64816;SDS011;69411;45.656;11.740;2024-02-15T06:36:56;26.70;;;15.10;;
64816;SDS011;69411;45.656;11.740;2024-02-15T06:39:41;30.02;;;16.45;;
64816;SDS011;69411;45.656;11.740;2024-02-15T06:44:38;25.67;;;14.63;;
64816;SDS011;69411;45.656;11.740;2024-02-15T06:47:05;26.65;;;14.98;;
64816;SDS011;69411;45.656;11.740;2024-02-15T06:49:32;28.90;;;15.70;;
64816;SDS011;69411;45.656;11.740;2024-02-15T06:52:01;29.67;;;14.70;;
64816;SDS011;69411;45.656;11.740;2024-02-15T06:54:28;30.02;;;14.15;;
64816;SDS011;69411;45.656;11.740;2024-02-15T06:56:54;25.30;;;14.50;;
64816;SDS011;69411;45.656;11.740;2024-02-15T06:59:20;25.30;;;15.50;;
64816;SDS011;69411;45.656;11.740;2024-02-15T07:01:48;23.42;;;13.50;;
64816;SDS011;69411;45.656;11.740;2024-02-15T07:04:18;27.33;;;15.80;;
64816;SDS011;69411;45.656;11.740;2024-02-15T07:06:45;36.42;;;18.60;;
64816;SDS011;69411;45.656;11.740;2024-02-15T07:09:13;30.35;;;16.33;;
64816;SDS011;69411;45.656;11.740;2024-02-15T07:11:46;37.78;;;21.52;;
64816;SDS011;69411;45.656;11.740;2024-02-15T07:14:14;38.38;;;21.60;;
64816;SDS011;69411;45.656;11.740;2024-02-15T07:16:49;39.83;;;21.92;;
64816;SDS011;69411;45.656;11.740;2024-02-15T07:19:16;42.33;;;22.10;;
64816;SDS011;69411;45.656;11.740;2024-02-15T07:21:43;46.67;;;25.23;;
64816;SDS011;69411;45.656;11.740;2024-02-15T07:24:12;54.53;;;30.40;;
64816;SDS011;69411;45.656;11.740;2024-02-15T07:26:39;56.35;;;31.63;;
64816;SDS011;69411;45.656;11.740;2024-02-15T07:29:05;53.33;;;30.48;;
64816;SDS011;69411;45.656;11.740;2024-02-15T07:31:31;52.80;;;28.85;;
64816;SDS011;69411;45.656;11.740;2024-02-15T07:33:58;43.58;;;25.23;;
64816;SDS011;69411;45.656;11.740;2024-02-15T07:36:24;46.47;;;26.70;;
64816;SDS011;69411;45.656;11.740;2024-02-15T07:38:52;41.20;;;22.45;;
64816;SDS011;69411;45.656;11.740;2024-02-15T07:41:19;40.03;;;23.02;;
64816;SDS011;69411;45.656;11.740;2024-02-15T07:43:48;42.03;;;25.70;;
64816;SDS011;69411;45.656;11.740;2024-02-15T07:46:15;49.75;;;26.33;;
64816;SDS011;69411;45.656;11.740;2024-02-15T07:48:44;37.90;;;21.33;;
64816;SDS011;69411;45.656;11.740;2024-02-15T07:51:21;32.10;;;19.30;;
64816;SDS011;69411;45.656;11.740;2024-02-15T07:53:48;31.52;;;19.40;;
64816;SDS011;69411;45.656;11.740;2024-02-15T07:56:15;30.98;;;17.83;;
64816;SDS011;69411;45.656;11.740;2024-02-15T07:58:45;31.25;;;17.83;;
64816;SDS011;69411;45.656;11.740;2024-02-15T08:01:13;30.52;;;18.13;;
64816;SDS011;69411;45.656;11.740;2024-02-15T08:03:42;34.28;;;17.67;;
64816;SDS011;69411;45.656;11.740;2024-02-15T08:06:11;35.58;;;19.83;;
64816;SDS011;69411;45.656;11.740;2024-02-15T08:08:41;40.13;;;22.83;;
64816;SDS011;69411;45.656;11.740;2024-02-15T08:11:15;36.33;;;21.48;;
64816;SDS011;69411;45.656;11.740;2024-02-15T08:16:21;39.47;;;20.48;;
64816;SDS011;69411;45.656;11.740;2024-02-15T08:18:48;39.53;;;20.92;;
64816;SDS011;69411;45.656;11.740;2024-02-15T08:21:17;36.10;;;20.50;;
64816;SDS011;69411;45.656;11.740;2024-02-15T08:23:46;37.58;;;20.42;;
64816;SDS011;69411;45.656;11.740;2024-02-15T08:26:12;37.08;;;20.15;;
64816;SDS011;69411;45.656;11.740;2024-02-15T08:28:38;40.85;;;22.17;;
64816;SDS011;69411;45.656;11.740;2024-02-15T08:31:04;37.00;;;21.08;;
64816;SDS011;69411;45.656;11.740;2024-02-15T08:33:30;35.88;;;20.70;;
64816;SDS011;69411;45.656;11.740;2024-02-15T08:35:56;43.33;;;23.05;;
64816;SDS011;69411;45.656;11.740;2024-02-15T08:38:22;40.88;;;22.95;;
64816;SDS011;69411;45.656;11.740;2024-02-15T08:40:48;41.45;;;22.55;;
64816;SDS011;69411;45.656;11.740;2024-02-15T08:43:14;38.95;;;21.55;;
64816;SDS011;69411;45.656;11.740;2024-02-15T08:45:41;39.53;;;22.75;;
64816;SDS011;69411;45.656;11.740;2024-02-15T08:48:07;40.88;;;22.90;;
64816;SDS011;69411;45.656;11.740;2024-02-15T08:50:34;38.00;;;21.42;;
64816;SDS011;69411;45.656;11.740;2024-02-15T08:52:59;39.63;;;20.73;;
64816;SDS011;69411;45.656;11.740;2024-02-15T08:55:26;36.13;;;19.98;;
64816;SDS011;69411;45.656;11.740;2024-02-15T08:57:53;40.00;;;23.02;;
64816;SDS011;69411;45.656;11.740;2024-02-15T09:00:19;42.58;;;22.90;;
64816;SDS011;69411;45.656;11.740;2024-02-15T09:02:46;39.20;;;23.48;;
64816;SDS011;69411;45.656;11.740;2024-02-15T09:05:14;40.85;;;22.55;;
64816;SDS011;69411;45.656;11.740;2024-02-15T09:07:40;35.72;;;22.45;;
64816;SDS011;69411;45.656;11.740;2024-02-15T09:10:08;39.90;;;23.77;;
64816;SDS011;69411;45.656;11.740;2024-02-15T09:12:37;45.38;;;24.58;;
64816;SDS011;69411;45.656;11.740;2024-02-15T09:15:06;46.63;;;26.45;;
64816;SDS011;69411;45.656;11.740;2024-02-15T09:17:34;39.38;;;22.65;;
64816;SDS011;69411;45.656;11.740;2024-02-15T09:22:51;40.08;;;24.60;;
64816;SDS011;69411;45.656;11.740;2024-02-15T09:25:20;42.50;;;24.55;;
64816;SDS011;69411;45.656;11.740;2024-02-15T09:27:49;40.53;;;24.27;;
64816;SDS011;69411;45.656;11.740;2024-02-15T09:30:16;40.60;;;23.80;;
64816;SDS011;69411;45.656;11.740;2024-02-15T09:32:43;39.78;;;24.55;;
64816;SDS011;69411;45.656;11.740;2024-02-15T09:35:10;40.55;;;23.35;;
64816;SDS011;69411;45.656;11.740;2024-02-15T09:37:47;37.55;;;24.08;;
64816;SDS011;69411;45.656;11.740;2024-02-15T09:40:14;44.75;;;25.40;;
64816;SDS011;69411;45.656;11.740;2024-02-15T09:42:42;44.03;;;25.35;;
64816;SDS011;69411;45.656;11.740;2024-02-15T09:45:12;40.03;;;23.67;;
64816;SDS011;69411;45.656;11.740;2024-02-15T09:47:44;40.17;;;23.42;;
64816;SDS011;69411;45.656;11.740;2024-02-15T09:50:11;42.58;;;23.65;;
64816;SDS011;69411;45.656;11.740;2024-02-15T09:52:59;42.63;;;25.75;;
64816;SDS011;69411;45.656;11.740;2024-02-15T09:55:33;45.75;;;27.83;;
64816;SDS011;69411;45.656;11.740;2024-02-15T09:58:00;44.53;;;27.73;;
64816;SDS011;69411;45.656;11.740;2024-02-15T10:00:26;43.30;;;26.80;;
64816;SDS011;69411;45.656;11.740;2024-02-15T10:02:52;37.28;;;24.00;;
64816;SDS011;69411;45.656;11.740;2024-02-15T10:05:20;43.33;;;25.00;;
64816;SDS011;69411;45.656;11.740;2024-02-15T10:07:46;40.97;;;26.63;;
64816;SDS011;69411;45.656;11.740;2024-02-15T10:10:16;40.20;;;25.08;;
64816;SDS011;69411;45.656;11.740;2024-02-15T10:12:47;39.42;;;24.35;;
64816;SDS011;69411;45.656;11.740;2024-02-15T10:20:29;32.63;;;20.00;;
64816;SDS011;69411;45.656;11.740;2024-02-15T10:25:25;40.10;;;22.10;;
64816;SDS011;69411;45.656;11.740;2024-02-15T10:28:04;36.17;;;20.02;;
64816;SDS011;69411;45.656;11.740;2024-02-15T10:30:38;32.63;;;19.70;;
64816;SDS011;69411;45.656;11.740;2024-02-15T10:33:10;34.08;;;21.45;;
64816;SDS011;69411;45.656;11.740;2024-02-15T10:36:09;33.78;;;20.25;;
64816;SDS011;69411;45.656;11.740;2024-02-15T10:38:39;38.73;;;22.67;;
64816;SDS011;69411;45.656;11.740;2024-02-15T10:41:06;29.63;;;18.55;;
64816;SDS011;69411;45.656;11.740;2024-02-15T10:43:38;33.38;;;19.73;;
64816;SDS011;69411;45.656;11.740;2024-02-15T10:46:07;28.98;;;18.40;;
64816;SDS011;69411;45.656;11.740;2024-02-15T10:48:36;34.08;;;19.23;;
64816;SDS011;69411;45.656;11.740;2024-02-15T10:51:03;33.78;;;20.30;;
64816;SDS011;69411;45.656;11.740;2024-02-15T10:53:32;32.60;;;19.30;;
64816;SDS011;69411;45.656;11.740;2024-02-15T10:56:15;28.27;;;17.33;;
64816;SDS011;69411;45.656;11.740;2024-02-15T10:58:54;28.60;;;17.58;;
64816;SDS011;69411;45.656;11.740;2024-02-15T11:01:43;27.70;;;16.30;;
64816;SDS011;69411;45.656;11.740;2024-02-15T11:04:14;32.17;;;18.65;;
64816;SDS011;69411;45.656;11.740;2024-02-15T11:06:41;29.23;;;16.67;;
64816;SDS011;69411;45.656;11.740;2024-02-15T11:09:09;27.08;;;16.00;;
64816;SDS011;69411;45.656;11.740;2024-02-15T11:11:37;34.40;;;19.38;;
64816;SDS011;69411;45.656;11.740;2024-02-15T11:17:00;26.85;;;16.67;;
64816;SDS011;69411;45.656;11.740;2024-02-15T11:22:01;27.92;;;17.17;;
64816;SDS011;69411;45.656;11.740;2024-02-15T11:27:06;28.60;;;17.05;;
64816;SDS011;69411;45.656;11.740;2024-02-15T11:29:54;35.08;;;19.95;;
64816;SDS011;69411;45.656;11.740;2024-02-15T11:42:48;31.42;;;18.88;;
64816;SDS011;69411;45.656;11.740;2024-02-15T11:45:20;29.95;;;17.88;;
64816;SDS011;69411;45.656;11.740;2024-02-15T11:47:50;33.90;;;20.27;;
64816;SDS011;69411;45.656;11.740;2024-02-15T11:50:18;33.22;;;20.00;;
64816;SDS011;69411;45.656;11.740;2024-02-15T11:52:45;32.95;;;19.13;;
64816;SDS011;69411;45.656;11.740;2024-02-15T11:55:14;33.70;;;22.15;;
64816;SDS011;69411;45.656;11.740;2024-02-15T12:00:46;35.40;;;21.35;;
64816;SDS011;69411;45.656;11.740;2024-02-15T12:03:30;34.00;;;21.90;;
64816;SDS011;69411;45.656;11.740;2024-02-15T12:06:18;37.95;;;22.27;;
64816;SDS011;69411;45.656;11.740;2024-02-15T12:09:02;36.60;;;23.17;;
64816;SDS011;69411;45.656;11.740;2024-02-15T12:11:46;38.90;;;25.05;;
64816;SDS011;69411;45.656;11.740;2024-02-15T12:14:31;33.22;;;20.58;;
64816;SDS011;69411;45.656;11.740;2024-02-15T12:17:15;36.97;;;23.02;;
64816;SDS011;69411;45.656;11.740;2024-02-15T12:20:00;39.90;;;25.08;;
64816;SDS011;69411;45.656;11.740;2024-02-15T12:22:36;43.50;;;25.80;;
64816;SDS011;69411;45.656;11.740;2024-02-15T12:25:13;41.22;;;25.50;;
64816;SDS011;69411;45.656;11.740;2024-02-15T12:27:41;44.35;;;26.80;;
64816;SDS011;69411;45.656;11.740;2024-02-15T12:30:17;41.15;;;24.17;;
64816;SDS011;69411;45.656;11.740;2024-02-15T12:32:51;42.35;;;26.42;;
64816;SDS011;69411;45.656;11.740;2024-02-15T12:35:20;36.80;;;24.13;;
64816;SDS011;69411;45.656;11.740;2024-02-15T12:40:29;44.72;;;25.58;;
64816;SDS011;69411;45.656;11.740;2024-02-15T12:43:00;42.35;;;25.15;;
64816;SDS011;69411;45.656;11.740;2024-02-15T12:45:26;41.20;;;25.48;;
64816;SDS011;69411;45.656;11.740;2024-02-15T12:47:56;40.55;;;25.13;;
64816;SDS011;69411;45.656;11.740;2024-02-15T12:50:23;39.25;;;24.48;;
64816;SDS011;69411;45.656;11.740;2024-02-15T12:52:53;40.55;;;24.98;;
64816;SDS011;69411;45.656;11.740;2024-02-15T12:55:35;44.05;;;24.60;;
64816;SDS011;69411;45.656;11.740;2024-02-15T13:00:29;44.63;;;27.00;;
64816;SDS011;69411;45.656;11.740;2024-02-15T13:03:02;48.40;;;28.77;;
64816;SDS011;69411;45.656;11.740;2024-02-15T13:05:29;45.30;;;29.20;;
64816;SDS011;69411;45.656;11.740;2024-02-15T13:07:56;41.00;;;26.70;;
64816;SDS011;69411;45.656;11.740;2024-02-15T13:10:23;47.13;;;28.77;;
64816;SDS011;69411;45.656;11.740;2024-02-15T13:12:51;44.75;;;26.15;;
64816;SDS011;69411;45.656;11.740;2024-02-15T13:15:18;43.38;;;26.88;;
64816;SDS011;69411;45.656;11.740;2024-02-15T13:17:52;42.42;;;26.35;;
64816;SDS011;69411;45.656;11.740;2024-02-15T13:20:20;47.28;;;29.80;;
64816;SDS011;69411;45.656;11.740;2024-02-15T13:23:09;47.72;;;30.35;;
64816;SDS011;69411;45.656;11.740;2024-02-15T13:25:41;45.72;;;28.88;;
64816;SDS011;69411;45.656;11.740;2024-02-15T13:28:08;52.33;;;32.60;;
64816;SDS011;69411;45.656;11.740;2024-02-15T13:30:38;50.50;;;31.35;;
64816;SDS011;69411;45.656;11.740;2024-02-15T13:33:04;49.78;;;29.88;;
64816;SDS011;69411;45.656;11.740;2024-02-15T13:35:32;47.88;;;31.77;;
64816;SDS011;69411;45.656;11.740;2024-02-15T13:37:58;51.53;;;32.38;;
64816;SDS011;69411;45.656;11.740;2024-02-15T13:40:24;46.53;;;30.33;;
64816;SDS011;69411;45.656;11.740;2024-02-15T13:42:54;42.97;;;28.02;;
64816;SDS011;69411;45.656;11.740;2024-02-15T13:45:30;50.50;;;33.63;;
64816;SDS011;69411;45.656;11.740;2024-02-15T13:48:06;57.50;;;35.70;;
64816;SDS011;69411;45.656;11.740;2024-02-15T13:50:34;47.63;;;29.70;;
64816;SDS011;69411;45.656;11.740;2024-02-15T13:53:02;45.65;;;29.23;;
64816;SDS011;69411;45.656;11.740;2024-02-15T13:55:29;56.08;;;34.53;;
64816;SDS011;69411;45.656;11.740;2024-02-15T13:57:56;48.10;;;32.25;;
64816;SDS011;69411;45.656;11.740;2024-02-15T14:00:22;58.22;;;35.38;;
64816;SDS011;69411;45.656;11.740;2024-02-15T14:02:58;57.47;;;36.20;;
64816;SDS011;69411;45.656;11.740;2024-02-15T14:05:28;56.42;;;35.90;;
64816;SDS011;69411;45.656;11.740;2024-02-15T14:08:01;52.03;;;33.83;;
64816;SDS011;69411;45.656;11.740;2024-02-15T14:10:29;57.53;;;34.95;;
64816;SDS011;69411;45.656;11.740;2024-02-15T14:12:56;52.90;;;32.47;;
64816;SDS011;69411;45.656;11.740;2024-02-15T14:15:27;56.17;;;36.10;;
64816;SDS011;69411;45.656;11.740;2024-02-15T14:17:54;60.90;;;39.35;;
64816;SDS011;69411;45.656;11.740;2024-02-15T14:20:21;54.13;;;34.75;;
64816;SDS011;69411;45.656;11.740;2024-02-15T14:22:49;54.28;;;34.85;;
64816;SDS011;69411;45.656;11.740;2024-02-15T14:25:30;56.22;;;35.17;;
64816;SDS011;69411;45.656;11.740;2024-02-15T14:27:56;55.75;;;33.88;;
64816;SDS011;69411;45.656;11.740;2024-02-15T14:30:23;60.47;;;37.80;;
64816;SDS011;69411;45.656;11.740;2024-02-15T14:33:08;53.60;;;33.92;;
64816;SDS011;69411;45.656;11.740;2024-02-15T14:35:37;56.03;;;35.80;;
64816;SDS011;69411;45.656;11.740;2024-02-15T14:38:10;48.55;;;31.83;;
64816;SDS011;69411;45.656;11.740;2024-02-15T14:43:05;58.30;;;36.85;;
64816;SDS011;69411;45.656;11.740;2024-02-15T14:45:32;50.78;;;32.40;;
64816;SDS011;69411;45.656;11.740;2024-02-15T14:47:59;55.38;;;35.35;;
64816;SDS011;69411;45.656;11.740;2024-02-15T14:50:25;58.17;;;35.22;;
64816;SDS011;69411;45.656;11.740;2024-02-15T14:52:52;53.97;;;33.67;;
64816;SDS011;69411;45.656;11.740;2024-02-15T14:55:21;52.72;;;32.15;;
64816;SDS011;69411;45.656;11.740;2024-02-15T14:57:47;48.28;;;31.40;;
64816;SDS011;69411;45.656;11.740;2024-02-15T15:00:15;51.90;;;32.88;;
64816;SDS011;69411;45.656;11.740;2024-02-15T15:02:47;57.97;;;36.08;;
64816;SDS011;69411;45.656;11.740;2024-02-15T15:05:15;58.53;;;37.13;;